sensor_id;sensor_type;location;lat;lon;timestamp;temperature;humidity
13848;DHT22;6994;49.752;6.094;2023-11-21T00:02:18;9.90;99.90
13848;DHT22;6994;49.752;6.094;2023-11-21T00:04:46;9.80;99.90
13848;DHT22;6994;49.752;6.094;2023-11-21T00:07:13;9.80;99.90
13848;DHT22;6994;49.752;6.094;2023-11-21T00:09:40;9.80;99.90
13848;DHT22;6994;49.752;6.094;2023-11-21T00:12:08;9.70;99.90
13848;DHT22;6994;49.752;6.094;2023-11-21T00:14:34;9.60;99.90
13848;DHT22;6994;49.752;6.094;2023-11-21T00:17:02;9.60;99.90
13848;DHT22;6994;49.752;6.094;2023-11-21T00:19:31;9.50;99.90
13848;DHT22;6994;49.752;6.094;2023-11-21T00:21:58;9.50;99.90
13848;DHT22;6994;49.752;6.094;2023-11-21T00:24:25;9.50;99.90
13848;DHT22;6994;49.752;6.094;2023-11-21T00:26:53;9.50;99.90
13848;DHT22;6994;49.752;6.094;2023-11-21T00:29:21;9.40;99.90
13848;DHT22;6994;49.752;6.094;2023-11-21T00:31:48;9.40;99.90
13848;DHT22;6994;49.752;6.094;2023-11-21T00:34:15;9.40;99.90
13848;DHT22;6994;49.752;6.094;2023-11-21T00:36:42;9.40;99.90
13848;DHT22;6994;49.752;6.094;2023-11-21T00:39:09;9.40;99.90
13848;DHT22;6994;49.752;6.094;2023-11-21T00:41:37;9.40;99.90
13848;DHT22;6994;49.752;6.094;2023-11-21T00:44:04;9.40;99.90
13848;DHT22;6994;49.752;6.094;2023-11-21T00:46:31;9.40;99.90
13848;DHT22;6994;49.752;6.094;2023-11-21T00:48:59;9.40;99.90
13848;DHT22;6994;49.752;6.094;2023-11-21T00:51:27;9.40;99.90
13848;DHT22;6994;49.752;6.094;2023-11-21T00:53:54;9.40;99.90
13848;DHT22;6994;49.752;6.094;2023-11-21T00:56:21;9.40;99.90
13848;DHT22;6994;49.752;6.094;2023-11-21T00:58:49;9.30;99.90
13848;DHT22;6994;49.752;6.094;2023-11-21T01:01:17;9.30;99.90
13848;DHT22;6994;49.752;6.094;2023-11-21T01:03:45;9.30;99.90
13848;DHT22;6994;49.752;6.094;2023-11-21T01:06:11;9.30;99.90
13848;DHT22;6994;49.752;6.094;2023-11-21T01:08:38;9.30;99.90
13848;DHT22;6994;49.752;6.094;2023-11-21T01:11:05;9.30;99.90
13848;DHT22;6994;49.752;6.094;2023-11-21T01:13:33;9.30;99.90
13848;DHT22;6994;49.752;6.094;2023-11-21T01:16:00;9.30;99.90
13848;DHT22;6994;49.752;6.094;2023-11-21T01:18:27;9.20;99.90
13848;DHT22;6994;49.752;6.094;2023-11-21T01:20:54;9.20;99.90
13848;DHT22;6994;49.752;6.094;2023-11-21T01:23:21;9.20;99.90
13848;DHT22;6994;49.752;6.094;2023-11-21T01:25:49;9.20;99.90
13848;DHT22;6994;49.752;6.094;2023-11-21T01:28:16;9.20;99.90
13848;DHT22;6994;49.752;6.094;2023-11-21T01:30:43;9.20;99.90
13848;DHT22;6994;49.752;6.094;2023-11-21T01:33:10;9.20;99.90
13848;DHT22;6994;49.752;6.094;2023-11-21T01:35:37;9.10;99.90
13848;DHT22;6994;49.752;6.094;2023-11-21T01:38:05;9.20;99.90
13848;DHT22;6994;49.752;6.094;2023-11-21T01:40:32;9.20;99.90
13848;DHT22;6994;49.752;6.094;2023-11-21T01:42:59;9.20;99.90
13848;DHT22;6994;49.752;6.094;2023-11-21T01:45:26;9.20;99.90
13848;DHT22;6994;49.752;6.094;2023-11-21T01:47:53;9.20;99.90
13848;DHT22;6994;49.752;6.094;2023-11-21T01:50:21;9.40;99.90
13848;DHT22;6994;49.752;6.094;2023-11-21T01:52:48;9.50;99.90
13848;DHT22;6994;49.752;6.094;2023-11-21T01:55:16;9.70;99.90
13848;DHT22;6994;49.752;6.094;2023-11-21T01:57:42;9.90;99.90
13848;DHT22;6994;49.752;6.094;2023-11-21T02:00:10;9.90;99.90
13848;DHT22;6994;49.752;6.094;2023-11-21T02:02:43;9.80;99.90
13848;DHT22;6994;49.752;6.094;2023-11-21T02:05:15;10.00;99.90
13848;DHT22;6994;49.752;6.094;2023-11-21T02:07:43;10.10;99.90
13848;DHT22;6994;49.752;6.094;2023-11-21T02:10:10;10.10;99.90
13848;DHT22;6994;49.752;6.094;2023-11-21T02:12:38;10.00;99.90
13848;DHT22;6994;49.752;6.094;2023-11-21T02:15:05;9.90;99.90
13848;DHT22;6994;49.752;6.094;2023-11-21T02:17:32;9.90;99.90
13848;DHT22;6994;49.752;6.094;2023-11-21T02:19:59;9.70;99.90
13848;DHT22;6994;49.752;6.094;2023-11-21T02:22:27;9.60;99.90
13848;DHT22;6994;49.752;6.094;2023-11-21T02:24:54;9.60;99.90
13848;DHT22;6994;49.752;6.094;2023-11-21T02:27:21;9.50;99.90
13848;DHT22;6994;49.752;6.094;2023-11-21T02:29:48;9.70;99.90
13848;DHT22;6994;49.752;6.094;2023-11-21T02:32:15;9.70;99.90
13848;DHT22;6994;49.752;6.094;2023-11-21T02:34:42;9.60;99.90
13848;DHT22;6994;49.752;6.094;2023-11-21T02:37:10;9.60;99.90
13848;DHT22;6994;49.752;6.094;2023-11-21T02:39:37;9.50;99.90
13848;DHT22;6994;49.752;6.094;2023-11-21T02:42:04;9.50;99.90
13848;DHT22;6994;49.752;6.094;2023-11-21T02:44:31;9.40;99.90
13848;DHT22;6994;49.752;6.094;2023-11-21T02:46:58;9.40;99.90
13848;DHT22;6994;49.752;6.094;2023-11-21T02:49:26;9.30;99.90
13848;DHT22;6994;49.752;6.094;2023-11-21T02:51:56;9.30;99.90
13848;DHT22;6994;49.752;6.094;2023-11-21T02:54:23;9.30;99.90
13848;DHT22;6994;49.752;6.094;2023-11-21T02:56:50;9.30;99.90
13848;DHT22;6994;49.752;6.094;2023-11-21T02:59:17;9.30;99.90
13848;DHT22;6994;49.752;6.094;2023-11-21T03:01:45;9.30;99.90
13848;DHT22;6994;49.752;6.094;2023-11-21T03:04:12;9.20;99.90
13848;DHT22;6994;49.752;6.094;2023-11-21T03:06:39;9.40;99.90
13848;DHT22;6994;49.752;6.094;2023-11-21T03:09:06;9.70;99.90
13848;DHT22;6994;49.752;6.094;2023-11-21T03:11:33;9.70;99.90
13848;DHT22;6994;49.752;6.094;2023-11-21T03:14:00;9.90;99.90
13848;DHT22;6994;49.752;6.094;2023-11-21T03:16:28;9.80;99.90
13848;DHT22;6994;49.752;6.094;2023-11-21T03:18:55;10.00;99.90
13848;DHT22;6994;49.752;6.094;2023-11-21T03:21:22;9.90;99.90
13848;DHT22;6994;49.752;6.094;2023-11-21T03:23:49;10.10;99.90
13848;DHT22;6994;49.752;6.094;2023-11-21T03:26:16;10.00;99.90
13848;DHT22;6994;49.752;6.094;2023-11-21T03:28:44;9.90;99.90
13848;DHT22;6994;49.752;6.094;2023-11-21T03:31:11;9.80;99.90
13848;DHT22;6994;49.752;6.094;2023-11-21T03:33:38;9.70;99.90
13848;DHT22;6994;49.752;6.094;2023-11-21T03:36:05;9.80;99.90
13848;DHT22;6994;49.752;6.094;2023-11-21T03:38:32;9.70;99.90
13848;DHT22;6994;49.752;6.094;2023-11-21T03:41:00;9.60;99.90
13848;DHT22;6994;49.752;6.094;2023-11-21T03:43:27;9.50;99.90
13848;DHT22;6994;49.752;6.094;2023-11-21T03:45:54;9.50;99.90
13848;DHT22;6994;49.752;6.094;2023-11-21T03:48:21;9.40;99.90
13848;DHT22;6994;49.752;6.094;2023-11-21T03:50:48;9.30;99.90
13848;DHT22;6994;49.752;6.094;2023-11-21T03:53:16;9.20;99.90
13848;DHT22;6994;49.752;6.094;2023-11-21T03:55:43;9.20;99.90
13848;DHT22;6994;49.752;6.094;2023-11-21T03:58:10;9.20;99.90
13848;DHT22;6994;49.752;6.094;2023-11-21T04:00:37;9.10;99.90
13848;DHT22;6994;49.752;6.094;2023-11-21T04:03:04;9.10;99.90
13848;DHT22;6994;49.752;6.094;2023-11-21T04:05:32;9.10;99.90
13848;DHT22;6994;49.752;6.094;2023-11-21T04:07:59;9.30;99.90
13848;DHT22;6994;49.752;6.094;2023-11-21T04:10:26;9.40;99.90
13848;DHT22;6994;49.752;6.094;2023-11-21T04:12:53;9.40;99.90
13848;DHT22;6994;49.752;6.094;2023-11-21T04:15:20;9.40;99.90
13848;DHT22;6994;49.752;6.094;2023-11-21T04:17:48;9.60;99.90
13848;DHT22;6994;49.752;6.094;2023-11-21T04:20:15;9.60;99.90
13848;DHT22;6994;49.752;6.094;2023-11-21T04:22:43;9.80;99.90
13848;DHT22;6994;49.752;6.094;2023-11-21T04:25:10;9.80;99.90
13848;DHT22;6994;49.752;6.094;2023-11-21T04:27:37;10.00;99.90
13848;DHT22;6994;49.752;6.094;2023-11-21T04:30:04;9.90;99.90
13848;DHT22;6994;49.752;6.094;2023-11-21T04:32:31;10.10;99.90
13848;DHT22;6994;49.752;6.094;2023-11-21T04:34:58;10.00;99.90
13848;DHT22;6994;49.752;6.094;2023-11-21T04:37:25;9.90;99.90
13848;DHT22;6994;49.752;6.094;2023-11-21T04:39:52;9.80;99.90
13848;DHT22;6994;49.752;6.094;2023-11-21T04:42:20;9.70;99.90
13848;DHT22;6994;49.752;6.094;2023-11-21T04:44:47;9.60;99.90
13848;DHT22;6994;49.752;6.094;2023-11-21T04:47:14;9.60;99.90
13848;DHT22;6994;49.752;6.094;2023-11-21T04:49:45;9.50;99.90
13848;DHT22;6994;49.752;6.094;2023-11-21T04:52:11;9.50;99.90
13848;DHT22;6994;49.752;6.094;2023-11-21T04:54:38;9.50;99.90
13848;DHT22;6994;49.752;6.094;2023-11-21T04:57:06;9.40;99.90
13848;DHT22;6994;49.752;6.094;2023-11-21T04:59:33;9.40;99.90
13848;DHT22;6994;49.752;6.094;2023-11-21T05:02:00;9.40;99.90
13848;DHT22;6994;49.752;6.094;2023-11-21T05:04:27;9.40;99.90
13848;DHT22;6994;49.752;6.094;2023-11-21T05:06:54;9.40;99.90
13848;DHT22;6994;49.752;6.094;2023-11-21T05:09:22;9.40;99.90
13848;DHT22;6994;49.752;6.094;2023-11-21T05:11:49;9.30;99.90
13848;DHT22;6994;49.752;6.094;2023-11-21T05:14:16;9.30;99.90
13848;DHT22;6994;49.752;6.094;2023-11-21T05:16:43;9.30;99.90
13848;DHT22;6994;49.752;6.094;2023-11-21T05:19:10;9.30;99.90
13848;DHT22;6994;49.752;6.094;2023-11-21T05:21:38;9.30;99.90
13848;DHT22;6994;49.752;6.094;2023-11-21T05:24:05;9.30;99.90
13848;DHT22;6994;49.752;6.094;2023-11-21T05:26:32;9.20;99.90
13848;DHT22;6994;49.752;6.094;2023-11-21T05:28:59;9.20;99.90
13848;DHT22;6994;49.752;6.094;2023-11-21T05:31:26;9.20;99.90
13848;DHT22;6994;49.752;6.094;2023-11-21T05:33:54;9.20;99.90
13848;DHT22;6994;49.752;6.094;2023-11-21T05:36:21;9.20;99.90
13848;DHT22;6994;49.752;6.094;2023-11-21T05:38:48;9.20;99.90
13848;DHT22;6994;49.752;6.094;2023-11-21T05:41:15;9.20;99.90
13848;DHT22;6994;49.752;6.094;2023-11-21T05:43:42;9.20;99.90
13848;DHT22;6994;49.752;6.094;2023-11-21T05:46:10;9.20;99.90
13848;DHT22;6994;49.752;6.094;2023-11-21T05:48:37;9.20;99.90
13848;DHT22;6994;49.752;6.094;2023-11-21T05:51:07;9.20;99.90
13848;DHT22;6994;49.752;6.094;2023-11-21T05:53:31;9.20;99.90
13848;DHT22;6994;49.752;6.094;2023-11-21T05:55:58;9.20;99.90
13848;DHT22;6994;49.752;6.094;2023-11-21T05:58:26;9.40;99.90
13848;DHT22;6994;49.752;6.094;2023-11-21T06:00:53;9.50;99.90
13848;DHT22;6994;49.752;6.094;2023-11-21T06:03:20;9.50;99.90
13848;DHT22;6994;49.752;6.094;2023-11-21T06:05:47;9.40;99.90
13848;DHT22;6994;49.752;6.094;2023-11-21T06:08:14;9.60;99.90
13848;DHT22;6994;49.752;6.094;2023-11-21T06:10:42;9.70;99.90
13848;DHT22;6994;49.752;6.094;2023-11-21T06:13:09;9.60;99.90
13848;DHT22;6994;49.752;6.094;2023-11-21T06:15:36;9.60;99.90
13848;DHT22;6994;49.752;6.094;2023-11-21T06:18:03;9.50;99.90
13848;DHT22;6994;49.752;6.094;2023-11-21T06:20:30;9.70;99.90
13848;DHT22;6994;49.752;6.094;2023-11-21T06:22:58;9.70;99.90
13848;DHT22;6994;49.752;6.094;2023-11-21T06:25:25;9.60;99.90
13848;DHT22;6994;49.752;6.094;2023-11-21T06:27:52;9.60;99.90
13848;DHT22;6994;49.752;6.094;2023-11-21T06:30:19;9.50;99.90
13848;DHT22;6994;49.752;6.094;2023-11-21T06:32:46;9.70;99.90
13848;DHT22;6994;49.752;6.094;2023-11-21T06:35:14;9.70;99.90
13848;DHT22;6994;49.752;6.094;2023-11-21T06:37:41;9.90;99.90
13848;DHT22;6994;49.752;6.094;2023-11-21T06:40:08;9.90;99.90
13848;DHT22;6994;49.752;6.094;2023-11-21T06:42:35;9.80;99.90
13848;DHT22;6994;49.752;6.094;2023-11-21T06:45:02;9.70;99.90
13848;DHT22;6994;49.752;6.094;2023-11-21T06:47:30;9.60;99.90
13848;DHT22;6994;49.752;6.094;2023-11-21T06:49:58;9.50;99.90
13848;DHT22;6994;49.752;6.094;2023-11-21T06:52:24;9.70;99.90
13848;DHT22;6994;49.752;6.094;2023-11-21T06:54:51;9.70;99.90
13848;DHT22;6994;49.752;6.094;2023-11-21T06:57:19;9.90;99.90
13848;DHT22;6994;49.752;6.094;2023-11-21T06:59:46;9.90;99.90
13848;DHT22;6994;49.752;6.094;2023-11-21T07:02:13;9.80;99.90
13848;DHT22;6994;49.752;6.094;2023-11-21T07:04:40;9.60;99.90
13848;DHT22;6994;49.752;6.094;2023-11-21T07:07:07;9.80;99.90
13848;DHT22;6994;49.752;6.094;2023-11-21T07:09:34;9.80;99.90
13848;DHT22;6994;49.752;6.094;2023-11-21T07:12:02;9.70;99.90
13848;DHT22;6994;49.752;6.094;2023-11-21T07:14:29;9.60;99.90
13848;DHT22;6994;49.752;6.094;2023-11-21T07:16:56;9.50;99.90
13848;DHT22;6994;49.752;6.094;2023-11-21T07:19:24;9.70;99.90
13848;DHT22;6994;49.752;6.094;2023-11-21T07:21:52;9.70;99.90
13848;DHT22;6994;49.752;6.094;2023-11-21T07:24:19;9.70;99.90
13848;DHT22;6994;49.752;6.094;2023-11-21T07:26:46;9.90;99.90
13848;DHT22;6994;49.752;6.094;2023-11-21T07:29:14;9.90;99.90
13848;DHT22;6994;49.752;6.094;2023-11-21T07:31:41;9.80;99.90
13848;DHT22;6994;49.752;6.094;2023-11-21T07:34:09;9.70;99.90
13848;DHT22;6994;49.752;6.094;2023-11-21T07:36:37;9.60;99.90
13848;DHT22;6994;49.752;6.094;2023-11-21T07:39:05;9.60;99.90
13848;DHT22;6994;49.752;6.094;2023-11-21T07:41:32;9.60;99.90
13848;DHT22;6994;49.752;6.094;2023-11-21T07:43:59;9.60;99.90
13848;DHT22;6994;49.752;6.094;2023-11-21T07:46:27;9.50;99.90
13848;DHT22;6994;49.752;6.094;2023-11-21T07:48:54;9.50;99.90
13848;DHT22;6994;49.752;6.094;2023-11-21T07:51:21;9.50;99.90
13848;DHT22;6994;49.752;6.094;2023-11-21T07:53:49;9.60;99.90
13848;DHT22;6994;49.752;6.094;2023-11-21T07:56:16;9.50;99.90
13848;DHT22;6994;49.752;6.094;2023-11-21T07:58:43;9.50;99.90
13848;DHT22;6994;49.752;6.094;2023-11-21T08:01:10;9.60;99.90
13848;DHT22;6994;49.752;6.094;2023-11-21T08:03:38;9.60;99.90
13848;DHT22;6994;49.752;6.094;2023-11-21T08:06:05;9.60;99.90
13848;DHT22;6994;49.752;6.094;2023-11-21T08:08:32;9.60;99.90
13848;DHT22;6994;49.752;6.094;2023-11-21T08:10:59;9.60;99.90
13848;DHT22;6994;49.752;6.094;2023-11-21T08:13:27;9.60;99.90
13848;DHT22;6994;49.752;6.094;2023-11-21T08:15:57;9.60;99.90
13848;DHT22;6994;49.752;6.094;2023-11-21T08:18:24;9.70;99.90
13848;DHT22;6994;49.752;6.094;2023-11-21T08:20:51;9.70;99.90
13848;DHT22;6994;49.752;6.094;2023-11-21T08:23:18;9.70;99.90
13848;DHT22;6994;49.752;6.094;2023-11-21T08:25:45;9.80;99.90
13848;DHT22;6994;49.752;6.094;2023-11-21T08:28:12;9.80;99.90
13848;DHT22;6994;49.752;6.094;2023-11-21T08:30:40;9.80;99.90
13848;DHT22;6994;49.752;6.094;2023-11-21T08:33:07;9.90;99.90
13848;DHT22;6994;49.752;6.094;2023-11-21T08:35:34;9.90;99.90
13848;DHT22;6994;49.752;6.094;2023-11-21T08:38:01;10.00;99.90
13848;DHT22;6994;49.752;6.094;2023-11-21T08:40:28;10.00;99.90
13848;DHT22;6994;49.752;6.094;2023-11-21T08:42:56;10.00;99.90
13848;DHT22;6994;49.752;6.094;2023-11-21T08:45:23;10.10;99.90
13848;DHT22;6994;49.752;6.094;2023-11-21T08:47:50;10.10;99.90
13848;DHT22;6994;49.752;6.094;2023-11-21T08:50:18;10.20;99.90
13848;DHT22;6994;49.752;6.094;2023-11-21T08:52:46;10.20;99.90
13848;DHT22;6994;49.752;6.094;2023-11-21T08:55:13;10.20;99.90
13848;DHT22;6994;49.752;6.094;2023-11-21T08:57:41;10.30;99.90
13848;DHT22;6994;49.752;6.094;2023-11-21T09:00:08;10.40;99.90
13848;DHT22;6994;49.752;6.094;2023-11-21T09:02:38;10.70;99.90
13848;DHT22;6994;49.752;6.094;2023-11-21T09:05:05;10.80;99.90
13848;DHT22;6994;49.752;6.094;2023-11-21T09:07:33;10.90;99.90
13848;DHT22;6994;49.752;6.094;2023-11-21T09:10:00;10.90;99.90
13848;DHT22;6994;49.752;6.094;2023-11-21T09:12:27;10.90;99.90
13848;DHT22;6994;49.752;6.094;2023-11-21T09:14:54;10.90;99.90
13848;DHT22;6994;49.752;6.094;2023-11-21T09:17:21;11.00;99.90
13848;DHT22;6994;49.752;6.094;2023-11-21T09:19:49;11.10;99.90
13848;DHT22;6994;49.752;6.094;2023-11-21T09:22:16;11.10;99.90
13848;DHT22;6994;49.752;6.094;2023-11-21T09:24:43;11.20;99.90
13848;DHT22;6994;49.752;6.094;2023-11-21T09:27:11;11.20;99.90
13848;DHT22;6994;49.752;6.094;2023-11-21T09:29:38;11.40;99.90
13848;DHT22;6994;49.752;6.094;2023-11-21T09:32:05;11.40;99.90
13848;DHT22;6994;49.752;6.094;2023-11-21T09:34:35;11.40;99.90
13848;DHT22;6994;49.752;6.094;2023-11-21T09:37:05;11.40;99.90
13848;DHT22;6994;49.752;6.094;2023-11-21T09:39:32;11.40;99.90
13848;DHT22;6994;49.752;6.094;2023-11-21T09:42:04;11.40;99.90
13848;DHT22;6994;49.752;6.094;2023-11-21T09:44:35;11.40;99.90
13848;DHT22;6994;49.752;6.094;2023-11-21T09:47:00;11.40;99.90
13848;DHT22;6994;49.752;6.094;2023-11-21T09:49:27;11.70;99.90
13848;DHT22;6994;49.752;6.094;2023-11-21T09:51:55;11.70;99.90
13848;DHT22;6994;49.752;6.094;2023-11-21T09:54:23;11.70;99.90
13848;DHT22;6994;49.752;6.094;2023-11-21T09:56:51;11.70;99.90
13848;DHT22;6994;49.752;6.094;2023-11-21T09:59:18;11.70;99.90
13848;DHT22;6994;49.752;6.094;2023-11-21T10:01:45;11.70;99.90
13848;DHT22;6994;49.752;6.094;2023-11-21T10:04:13;11.80;99.90
13848;DHT22;6994;49.752;6.094;2023-11-21T10:06:41;11.70;99.90
13848;DHT22;6994;49.752;6.094;2023-11-21T10:09:11;11.70;99.90
13848;DHT22;6994;49.752;6.094;2023-11-21T10:11:41;11.70;99.90
13848;DHT22;6994;49.752;6.094;2023-11-21T10:14:11;11.70;99.90
13848;DHT22;6994;49.752;6.094;2023-11-21T10:16:38;11.90;99.90
13848;DHT22;6994;49.752;6.094;2023-11-21T10:19:05;12.00;99.90
13848;DHT22;6994;49.752;6.094;2023-11-21T10:21:35;11.90;99.90
13848;DHT22;6994;49.752;6.094;2023-11-21T10:24:02;11.80;99.90
13848;DHT22;6994;49.752;6.094;2023-11-21T10:26:29;11.70;99.90
13848;DHT22;6994;49.752;6.094;2023-11-21T10:28:59;11.60;99.90
13848;DHT22;6994;49.752;6.094;2023-11-21T10:31:27;11.40;99.90
13848;DHT22;6994;49.752;6.094;2023-11-21T10:33:54;11.40;99.90
13848;DHT22;6994;49.752;6.094;2023-11-21T10:36:27;11.60;99.90
13848;DHT22;6994;49.752;6.094;2023-11-21T10:38:54;11.70;99.90
13848;DHT22;6994;49.752;6.094;2023-11-21T10:41:21;11.50;99.90
13848;DHT22;6994;49.752;6.094;2023-11-21T10:43:48;11.50;99.90
13848;DHT22;6994;49.752;6.094;2023-11-21T10:46:16;11.50;99.90
13848;DHT22;6994;49.752;6.094;2023-11-21T10:48:43;11.70;99.90
13848;DHT22;6994;49.752;6.094;2023-11-21T10:51:10;11.70;99.90
13848;DHT22;6994;49.752;6.094;2023-11-21T10:53:40;11.70;99.90
13848;DHT22;6994;49.752;6.094;2023-11-21T10:56:08;11.70;99.90
13848;DHT22;6994;49.752;6.094;2023-11-21T10:58:35;11.70;99.90
13848;DHT22;6994;49.752;6.094;2023-11-21T11:01:02;11.70;99.90
13848;DHT22;6994;49.752;6.094;2023-11-21T11:03:29;11.70;99.90
13848;DHT22;6994;49.752;6.094;2023-11-21T11:05:56;11.70;99.90
13848;DHT22;6994;49.752;6.094;2023-11-21T11:08:23;11.80;99.90
13848;DHT22;6994;49.752;6.094;2023-11-21T11:10:51;12.20;99.90
13848;DHT22;6994;49.752;6.094;2023-11-21T11:13:18;12.60;99.90
13848;DHT22;6994;49.752;6.094;2023-11-21T11:15:48;12.60;99.90
13848;DHT22;6994;49.752;6.094;2023-11-21T11:18:18;12.80;99.90
13848;DHT22;6994;49.752;6.094;2023-11-21T11:20:42;12.80;99.90
13848;DHT22;6994;49.752;6.094;2023-11-21T11:26:05;12.60;99.90
13848;DHT22;6994;49.752;6.094;2023-11-21T11:34:26;12.40;99.90
13848;DHT22;6994;49.752;6.094;2023-11-21T11:37:00;12.30;99.90
13848;DHT22;6994;49.752;6.094;2023-11-21T11:39:30;12.30;99.90
13848;DHT22;6994;49.752;6.094;2023-11-21T11:41:54;12.30;99.90
13848;DHT22;6994;49.752;6.094;2023-11-21T11:47:14;12.20;99.90
13848;DHT22;6994;49.752;6.094;2023-11-21T11:50:10;12.20;99.90
13848;DHT22;6994;49.752;6.094;2023-11-21T11:52:50;12.20;99.90
13848;DHT22;6994;49.752;6.094;2023-11-21T11:55:17;12.20;99.90
13848;DHT22;6994;49.752;6.094;2023-11-21T11:57:44;12.20;99.90
13848;DHT22;6994;49.752;6.094;2023-11-21T12:00:18;12.20;99.90
13848;DHT22;6994;49.752;6.094;2023-11-21T12:02:56;12.20;99.90
13848;DHT22;6994;49.752;6.094;2023-11-21T12:05:32;12.20;99.90
13848;DHT22;6994;49.752;6.094;2023-11-21T12:08:07;12.20;99.90
13848;DHT22;6994;49.752;6.094;2023-11-21T12:10:35;12.20;99.90
13848;DHT22;6994;49.752;6.094;2023-11-21T12:13:05;12.20;99.90
13848;DHT22;6994;49.752;6.094;2023-11-21T12:15:32;12.10;99.90
13848;DHT22;6994;49.752;6.094;2023-11-21T12:18:00;12.10;99.90
13848;DHT22;6994;49.752;6.094;2023-11-21T12:20:27;12.10;99.90
13848;DHT22;6994;49.752;6.094;2023-11-21T12:22:58;12.20;99.90
13848;DHT22;6994;49.752;6.094;2023-11-21T12:25:27;12.20;99.90
13848;DHT22;6994;49.752;6.094;2023-11-21T12:27:54;12.30;99.90
13848;DHT22;6994;49.752;6.094;2023-11-21T12:30:22;12.30;99.90
13848;DHT22;6994;49.752;6.094;2023-11-21T12:32:52;12.40;99.90
13848;DHT22;6994;49.752;6.094;2023-11-21T12:35:15;12.70;99.90
13848;DHT22;6994;49.752;6.094;2023-11-21T12:37:43;12.90;99.90
13848;DHT22;6994;49.752;6.094;2023-11-21T12:40:10;12.90;99.90
13848;DHT22;6994;49.752;6.094;2023-11-21T12:42:40;13.20;99.90
13848;DHT22;6994;49.752;6.094;2023-11-21T12:47:34;13.80;99.90
13848;DHT22;6994;49.752;6.094;2023-11-21T12:50:02;14.00;99.90
13848;DHT22;6994;49.752;6.094;2023-11-21T12:52:29;13.90;99.90
13848;DHT22;6994;49.752;6.094;2023-11-21T12:54:56;13.80;99.90
13848;DHT22;6994;49.752;6.094;2023-11-21T12:57:25;13.80;99.90
13848;DHT22;6994;49.752;6.094;2023-11-21T12:59:56;13.60;99.90
13848;DHT22;6994;49.752;6.094;2023-11-21T13:02:20;13.50;99.90
13848;DHT22;6994;49.752;6.094;2023-11-21T13:04:51;13.40;99.90
13848;DHT22;6994;49.752;6.094;2023-11-21T13:07:14;13.40;99.90
13848;DHT22;6994;49.752;6.094;2023-11-21T13:09:41;13.40;99.90
13848;DHT22;6994;49.752;6.094;2023-11-21T13:12:09;13.40;99.90
13848;DHT22;6994;49.752;6.094;2023-11-21T13:14:36;13.30;99.90
13848;DHT22;6994;49.752;6.094;2023-11-21T13:17:04;13.30;99.90
13848;DHT22;6994;49.752;6.094;2023-11-21T13:19:32;13.40;99.90
13848;DHT22;6994;49.752;6.094;2023-11-21T13:22:00;13.40;99.90
13848;DHT22;6994;49.752;6.094;2023-11-21T13:24:27;13.40;99.90
13848;DHT22;6994;49.752;6.094;2023-11-21T13:26:54;13.50;99.90
13848;DHT22;6994;49.752;6.094;2023-11-21T13:29:21;13.60;99.90
13848;DHT22;6994;49.752;6.094;2023-11-21T13:31:49;14.00;99.90
13848;DHT22;6994;49.752;6.094;2023-11-21T13:34:16;14.00;99.90
13848;DHT22;6994;49.752;6.094;2023-11-21T13:36:43;14.30;99.90
13848;DHT22;6994;49.752;6.094;2023-11-21T13:39:10;14.20;99.90
13848;DHT22;6994;49.752;6.094;2023-11-21T13:41:37;14.00;99.90
13848;DHT22;6994;49.752;6.094;2023-11-21T13:44:05;13.80;99.90
13848;DHT22;6994;49.752;6.094;2023-11-21T13:46:47;13.70;99.90
13848;DHT22;6994;49.752;6.094;2023-11-21T13:49:14;13.60;99.90
13848;DHT22;6994;49.752;6.094;2023-11-21T13:51:41;13.40;99.90
13848;DHT22;6994;49.752;6.094;2023-11-21T13:54:08;13.30;99.90
13848;DHT22;6994;49.752;6.094;2023-11-21T13:56:36;13.30;99.90
13848;DHT22;6994;49.752;6.094;2023-11-21T13:59:03;13.30;99.90
13848;DHT22;6994;49.752;6.094;2023-11-21T14:01:42;13.50;99.90
13848;DHT22;6994;49.752;6.094;2023-11-21T14:04:09;13.40;99.90
13848;DHT22;6994;49.752;6.094;2023-11-21T14:06:51;13.20;99.90
13848;DHT22;6994;49.752;6.094;2023-11-21T14:09:19;13.10;99.90
13848;DHT22;6994;49.752;6.094;2023-11-21T14:11:52;12.90;99.90
13848;DHT22;6994;49.752;6.094;2023-11-21T14:14:19;12.80;99.90
13848;DHT22;6994;49.752;6.094;2023-11-21T14:16:46;12.60;99.90
13848;DHT22;6994;49.752;6.094;2023-11-21T14:19:13;12.60;99.90
13848;DHT22;6994;49.752;6.094;2023-11-21T14:21:40;12.70;99.90
13848;DHT22;6994;49.752;6.094;2023-11-21T14:24:07;12.70;99.90
13848;DHT22;6994;49.752;6.094;2023-11-21T14:26:35;12.80;99.90
13848;DHT22;6994;49.752;6.094;2023-11-21T14:29:02;13.00;99.90
13848;DHT22;6994;49.752;6.094;2023-11-21T14:31:29;13.20;99.90
13848;DHT22;6994;49.752;6.094;2023-11-21T14:33:56;13.30;99.90
13848;DHT22;6994;49.752;6.094;2023-11-21T14:36:23;13.50;99.90
13848;DHT22;6994;49.752;6.094;2023-11-21T14:38:51;13.60;99.90
13848;DHT22;6994;49.752;6.094;2023-11-21T14:41:18;13.80;99.90
13848;DHT22;6994;49.752;6.094;2023-11-21T14:43:45;13.80;99.90
13848;DHT22;6994;49.752;6.094;2023-11-21T14:46:12;13.70;99.90
13848;DHT22;6994;49.752;6.094;2023-11-21T14:48:39;13.50;99.90
13848;DHT22;6994;49.752;6.094;2023-11-21T14:51:07;13.30;99.90
13848;DHT22;6994;49.752;6.094;2023-11-21T14:53:49;13.20;99.90
13848;DHT22;6994;49.752;6.094;2023-11-21T14:56:22;13.10;99.90
13848;DHT22;6994;49.752;6.094;2023-11-21T14:58:53;12.90;99.90
13848;DHT22;6994;49.752;6.094;2023-11-21T15:01:20;13.10;99.90
13848;DHT22;6994;49.752;6.094;2023-11-21T15:03:46;13.00;99.90
13848;DHT22;6994;49.752;6.094;2023-11-21T15:06:14;12.90;99.90
13848;DHT22;6994;49.752;6.094;2023-11-21T15:08:55;12.60;99.90
13848;DHT22;6994;49.752;6.094;2023-11-21T15:11:24;12.60;99.90
13848;DHT22;6994;49.752;6.094;2023-11-21T15:13:51;12.50;99.90
13848;DHT22;6994;49.752;6.094;2023-11-21T15:16:18;12.40;99.90
13848;DHT22;6994;49.752;6.094;2023-11-21T15:18:45;12.50;99.90
13848;DHT22;6994;49.752;6.094;2023-11-21T15:21:13;12.50;99.90
13848;DHT22;6994;49.752;6.094;2023-11-21T15:23:40;12.40;99.90
13848;DHT22;6994;49.752;6.094;2023-11-21T15:26:07;12.30;99.90
13848;DHT22;6994;49.752;6.094;2023-11-21T15:28:34;12.20;99.90
13848;DHT22;6994;49.752;6.094;2023-11-21T15:31:02;12.10;99.90
13848;DHT22;6994;49.752;6.094;2023-11-21T15:33:29;12.00;99.90
13848;DHT22;6994;49.752;6.094;2023-11-21T15:35:56;11.90;99.90
13848;DHT22;6994;49.752;6.094;2023-11-21T15:38:23;11.80;99.90
13848;DHT22;6994;49.752;6.094;2023-11-21T15:40:50;12.00;99.90
13848;DHT22;6994;49.752;6.094;2023-11-21T15:43:18;12.00;99.90
13848;DHT22;6994;49.752;6.094;2023-11-21T15:45:45;11.90;99.90
13848;DHT22;6994;49.752;6.094;2023-11-21T15:48:12;11.80;99.90
13848;DHT22;6994;49.752;6.094;2023-11-21T15:50:40;11.60;99.90
13848;DHT22;6994;49.752;6.094;2023-11-21T15:53:07;11.50;99.90
13848;DHT22;6994;49.752;6.094;2023-11-21T15:55:34;11.50;99.90
13848;DHT22;6994;49.752;6.094;2023-11-21T15:58:02;11.60;99.90
13848;DHT22;6994;49.752;6.094;2023-11-21T16:00:29;11.90;99.90
13848;DHT22;6994;49.752;6.094;2023-11-21T16:02:56;11.80;99.90
13848;DHT22;6994;49.752;6.094;2023-11-21T16:05:23;11.70;99.90
13848;DHT22;6994;49.752;6.094;2023-11-21T16:07:50;11.70;99.90
13848;DHT22;6994;49.752;6.094;2023-11-21T16:10:18;11.60;99.90
13848;DHT22;6994;49.752;6.094;2023-11-21T16:12:45;11.50;99.90